Time;durP1;ratioP1;P1;durP2;ratioP2;P2;SDS_P1;SDS_P2;PMS_P1;PMS_P2;Temp;Humidity;BMP_temperature;BMP_pressure;BME280_temperature;BME280_humidity;BME280_pressure;Samples;Min_cycle;Max_cycle;Signal;HPM_P1;HPM_P2
2023/01/06 00:00:40;;;;;;;4.87;2.12;;;;;;;3.45;75.93;100619.86;2189906;81;21068;-81
2023/01/06 00:03:42;;;;;;;3.00;1.80;;;;;;;3.41;75.94;100617.94;2189985;80;21000;-80
2023/01/06 00:06:43;;;;;;;8.05;2.10;;;;;;;3.36;76.06;100623.98;2192256;81;21436;-83
2023/01/06 00:09:44;;;;;;;10.68;2.47;;;;;;;3.31;76.24;100632.16;2195870;80;20985;-82
2023/01/06 00:12:47;;;;;;;5.42;2.37;;;;;;;3.28;76.32;100640.72;2191724;79;20962;-85
2023/01/06 00:15:48;;;;;;;6.05;2.22;;;;;;;3.24;76.32;100641.86;2189145;81;20978;-82
2023/01/06 00:18:56;;;;;;;6.62;2.33;;;;;;;3.18;76.45;100650.16;2188829;81;20947;-81
2023/01/06 00:21:57;;;;;;;4.72;2.15;;;;;;;3.11;76.42;100649.28;2194384;80;21357;-82
2023/01/06 00:24:58;;;;;;;6.50;2.25;;;;;;;3.07;76.51;100652.20;2197675;80;20958;-81
2023/01/06 00:27:59;;;;;;;4.40;1.92;;;;;;;3.00;76.49;100641.80;2174736;81;21048;-84
2023/01/06 00:31:11;;;;;;;5.90;1.80;;;;;;;2.95;76.44;100656.52;2169253;81;20934;-82
2023/01/06 00:34:14;;;;;;;2.50;1.70;;;;;;;2.91;76.40;100652.44;2190519;81;21615;-82
2023/01/06 00:37:15;;;;;;;7.72;2.08;;;;;;;2.86;76.53;100650.59;2196706;80;20969;-82
2023/01/06 00:40:16;;;;;;;2.65;1.90;;;;;;;2.80;76.54;100653.64;2199081;80;21567;-81
2023/01/06 00:43:18;;;;;;;6.55;2.12;;;;;;;2.74;76.60;100651.44;2186920;81;21009;-83
2023/01/06 00:46:19;;;;;;;3.80;1.85;;;;;;;2.69;76.60;100660.91;2193951;81;21047;-83
2023/01/06 00:49:20;;;;;;;5.72;1.90;;;;;;;2.62;76.72;100668.34;2189235;81;20985;-80
2023/01/06 00:52:22;;;;;;;3.83;1.60;;;;;;;2.58;76.83;100678.65;2187175;80;21064;-83
2023/01/06 00:55:23;;;;;;;5.47;1.90;;;;;;;2.53;76.78;100676.80;2189377;80;20973;-83
2023/01/06 00:58:30;;;;;;;3.42;1.70;;;;;;;2.47;76.97;100685.06;2185760;80;21015;-80
2023/01/06 01:01:33;;;;;;;4.83;1.80;;;;;;;2.43;76.91;100691.46;2184587;80;20975;-82
2023/01/06 01:04:34;;;;;;;5.95;2.20;;;;;;;2.37;77.04;100697.94;2188973;80;21061;-81
2023/01/06 01:07:36;;;;;;;3.27;1.90;;;;;;;2.33;77.14;100702.16;2191542;80;21441;-83
2023/01/06 01:10:37;;;;;;;4.45;1.92;;;;;;;2.31;77.40;100707.95;2193269;79;21017;-82
2023/01/06 01:13:38;;;;;;;6.25;2.20;;;;;;;2.29;77.30;100713.31;2187535;81;20983;-81
2023/01/06 01:16:40;;;;;;;5.12;2.17;;;;;;;2.26;77.29;100715.30;2193521;81;20991;-82
2023/01/06 01:19:41;;;;;;;5.25;2.72;;;;;;;2.21;77.58;100709.03;2190130;81;21471;-83
2023/01/06 01:22:43;;;;;;;4.83;2.10;;;;;;;2.18;77.53;100715.30;2186155;80;20972;-82
2023/01/06 01:25:44;;;;;;;6.47;2.25;;;;;;;2.14;77.63;100722.13;2191789;81;20977;-83
2023/01/06 01:28:45;;;;;;;4.60;2.33;;;;;;;2.11;77.71;100718.40;2185750;81;21004;-83
2023/01/06 01:31:47;;;;;;;4.97;2.45;;;;;;;2.10;77.61;100722.80;2191620;81;21012;-80
2023/01/06 01:34:48;;;;;;;4.37;2.27;;;;;;;2.08;77.75;100729.91;2188207;80;20989;-80
2023/01/06 01:37:49;;;;;;;3.83;2.12;;;;;;;2.02;77.73;100725.06;2195469;81;21004;-81
2023/01/06 01:40:51;;;;;;;4.78;2.20;;;;;;;1.97;77.81;100734.53;2192333;81;20980;-79
2023/01/06 01:44:03;;;;;;;7.62;2.10;;;;;;;1.94;77.92;100739.97;2187633;80;20981;-82
2023/01/06 01:47:04;;;;;;;3.25;2.00;;;;;;;1.91;77.96;100745.84;2190167;80;21420;-80
2023/01/06 01:50:41;;;;;;;3.77;1.77;;;;;;;1.87;77.85;100748.28;2190774;80;21041;-83
2023/01/06 01:53:47;;;;;;;10.53;2.17;;;;;;;1.83;77.94;100755.49;2190961;80;21006;-81
2023/01/06 01:56:54;;;;;;;5.40;2.33;;;;;;;1.79;78.06;100767.91;2195446;80;21083;-81
2023/01/06 01:59:57;;;;;;;6.05;2.10;;;;;;;1.76;78.10;100767.27;2185415;80;21056;-82
2023/01/06 02:02:59;;;;;;;7.95;2.45;;;;;;;1.74;78.23;100773.88;2189420;79;20989;-80
2023/01/06 02:06:05;;;;;;;10.85;2.80;;;;;;;1.74;78.32;100767.81;2191975;80;20949;-82
2023/01/06 02:09:31;;;;;;;8.70;2.42;;;;;;;1.75;78.38;100773.44;2195226;80;20980;-81
2023/01/06 02:12:33;;;;;;;9.90;2.35;;;;;;;1.76;78.44;100779.04;2190372;80;21013;-81
2023/01/06 02:15:36;;;;;;;2.65;1.98;;;;;;;1.78;78.61;100771.94;2188304;80;21484;-83
2023/01/06 02:18:51;;;;;;;8.60;2.83;;;;;;;1.80;78.67;100775.28;2196763;80;20977;-81
2023/01/06 02:22:33;;;;;;;7.35;2.62;;;;;;;1.85;78.77;100772.39;2190266;79;20985;-81
2023/01/06 02:26:00;;;;;;;5.87;2.37;;;;;;;1.88;78.83;100773.52;2193939;80;21136;-83
2023/01/06 02:29:13;;;;;;;5.92;2.98;;;;;;;1.93;78.93;100777.52;2194436;80;21036;-83
2023/01/06 02:32:59;;;;;;;7.50;2.65;;;;;;;1.98;78.93;100783.32;2192661;79;21060;-80
2023/01/06 02:36:18;;;;;;;6.40;3.15;;;;;;;2.01;78.87;100785.74;2187861;80;21543;-82
2023/01/06 02:40:04;;;;;;;5.47;2.50;;;;;;;2.07;78.95;100781.06;2184967;80;20996;-80
2023/01/06 02:43:26;;;;;;;8.88;2.62;;;;;;;2.10;78.95;100779.56;2188852;80;21037;-79
2023/01/06 02:46:53;;;;;;;7.90;2.50;;;;;;;2.13;79.01;100781.52;2189775;80;21477;-83
2023/01/06 02:50:18;;;;;;;7.03;2.62;;;;;;;2.13;79.02;100773.66;2194862;80;21045;-83
2023/01/06 02:53:34;;;;;;;4.90;2.30;;;;;;;2.12;79.11;100777.70;2192162;80;21524;-80
2023/01/06 02:56:41;;;;;;;5.10;2.40;;;;;;;2.11;79.02;100772.94;2178509;80;21453;-83
2023/01/06 03:00:03;;;;;;;4.78;2.20;;;;;;;2.10;79.00;100769.92;2190878;80;21072;-81
2023/01/06 03:03:13;;;;;;;5.65;2.17;;;;;;;2.10;79.02;100775.16;2190981;80;21053;-80
2023/01/06 03:06:19;;;;;;;4.30;2.00;;;;;;;2.10;79.07;100766.00;2189259;80;21000;-81
2023/01/06 03:09:25;;;;;;;2.67;1.80;;;;;;;2.11;79.08;100758.98;2186531;80;20992;-82
2023/01/06 03:12:41;;;;;;;3.27;2.10;;;;;;;2.10;79.14;100766.00;2190984;80;20993;-82
2023/01/06 03:15:43;;;;;;;2.70;2.02;;;;;;;2.10;79.13;100769.92;2185661;80;20985;-82
2023/01/06 03:18:48;;;;;;;2.62;1.90;;;;;;;2.12;79.27;100769.84;2186357;80;21500;-81
2023/01/06 03:21:50;;;;;;;2.83;2.00;;;;;;;2.11;79.12;100772.94;2190605;80;20968;-82
2023/01/06 03:24:53;;;;;;;5.83;2.12;;;;;;;2.12;79.16;100773.30;2189216;79;21532;-83
2023/01/06 03:27:56;;;;;;;2.90;1.80;;;;;;;2.13;79.12;100776.28;2190849;80;21034;-81
2023/01/06 03:31:33;;;;;;;3.27;2.02;;;;;;;2.15;79.16;100781.43;2191598;79;20996;-83
2023/01/06 03:35:00;;;;;;;2.92;1.82;;;;;;;2.17;79.17;100775.16;2187406;80;21523;-82
2023/01/06 03:38:33;;;;;;;3.52;1.72;;;;;;;2.14;79.14;100771.43;2188233;79;21139;-85
2023/01/06 03:45:27;;;;;;;3.17;2.10;;;;;;;2.14;79.19;100769.25;2189772;80;21014;-84
2023/01/06 03:48:54;;;;;;;3.58;2.20;;;;;;;2.15;79.23;100784.88;2189355;80;21571;-83
2023/01/06 03:52:13;;;;;;;3.05;2.10;;;;;;;2.16;79.24;100778.70;2194072;79;21005;-82
2023/01/06 03:55:19;;;;;;;4.87;2.20;;;;;;;2.15;79.39;100773.09;2191017;80;21148;-81
2023/01/06 03:58:22;;;;;;;4.00;2.60;;;;;;;2.17;79.25;100770.40;2186913;80;21645;-81
2023/01/06 04:01:25;;;;;;;3.75;2.40;;;;;;;2.16;79.32;100775.25;2188243;80;21074;-81
2023/01/06 04:04:27;;;;;;;5.37;2.52;;;;;;;2.15;79.28;100766.55;2189540;80;20978;-79
2023/01/06 04:07:29;;;;;;;5.53;2.42;;;;;;;2.17;79.27;100766.00;2192423;79;21527;-80
2023/01/06 04:10:31;;;;;;;4.65;2.67;;;;;;;2.20;79.33;100765.80;2166786;80;21009;-82
2023/01/06 04:13:32;;;;;;;3.90;2.42;;;;;;;2.24;79.25;100770.37;2190724;79;21067;-83
2023/01/06 04:16:35;;;;;;;2.77;2.20;;;;;;;2.23;79.22;100764.77;2188745;80;21032;-80
2023/01/06 04:19:36;;;;;;;4.67;2.10;;;;;;;2.24;79.33;100768.58;2186984;80;21547;-82
2023/01/06 04:22:38;;;;;;;3.85;2.60;;;;;;;2.23;79.28;100773.45;2190130;80;21034;-80
2023/01/06 04:25:39;;;;;;;3.83;2.90;;;;;;;2.23;79.20;100768.22;2189538;80;21469;-82
2023/01/06 04:28:42;;;;;;;3.52;2.77;;;;;;;2.22;79.21;100761.31;2186740;80;21018;-81
2023/01/06 04:31:44;;;;;;;3.22;2.90;;;;;;;2.21;79.30;100762.70;2190465;80;21111;-83
2023/01/06 04:34:45;;;;;;;3.92;2.42;;;;;;;2.19;79.27;100764.10;2191280;80;21004;-81
2023/01/06 04:37:47;;;;;;;3.85;2.70;;;;;;;2.21;79.26;100752.23;2194362;80;20966;-84
2023/01/06 04:40:48;;;;;;;3.33;2.50;;;;;;;2.26;79.27;100761.12;2184942;80;21464;-83
2023/01/06 04:43:49;;;;;;;3.80;2.30;;;;;;;2.29;79.28;100762.23;2196061;80;20980;-81
2023/01/06 04:46:50;;;;;;;3.02;2.72;;;;;;;2.33;79.39;100757.16;2190750;80;20993;-82
2023/01/06 04:49:52;;;;;;;3.77;3.05;;;;;;;2.33;79.16;100754.53;2187492;80;21041;-84
2023/01/06 04:52:53;;;;;;;4.05;2.83;;;;;;;2.33;79.17;100749.30;2187516;80;21009;-81
2023/01/06 04:55:54;;;;;;;4.87;2.98;;;;;;;2.31;79.09;100755.95;2189282;80;20969;-82
2023/01/06 04:58:56;;;;;;;5.67;2.60;;;;;;;2.31;79.19;100763.81;2189900;80;21572;-82
2023/01/06 05:01:57;;;;;;;3.40;3.00;;;;;;;2.32;79.24;100767.27;2191059;80;20934;-84
2023/01/06 05:04:58;;;;;;;3.22;2.72;;;;;;;2.33;79.31;100769.77;2195422;79;20973;-83
2023/01/06 05:08:00;;;;;;;3.33;2.87;;;;;;;2.35;79.27;100769.22;2189054;80;21021;-80
2023/01/06 05:11:08;;;;;;;3.98;2.80;;;;;;;2.37;79.31;100770.44;2191798;80;20938;-81
2023/01/06 05:14:09;;;;;;;3.70;2.83;;;;;;;2.38;79.29;100782.59;2189350;80;20985;-81
2023/01/06 05:17:10;;;;;;;3.85;2.77;;;;;;;2.41;79.40;100781.08;2194690;80;21016;-81
2023/01/06 05:20:12;;;;;;;3.55;2.90;;;;;;;2.39;79.19;100786.44;2192999;80;21040;-82
2023/01/06 05:23:13;;;;;;;5.10;3.00;;;;;;;2.41;79.17;100788.94;2190448;80;20998;-82
2023/01/06 05:26:19;;;;;;;4.00;2.67;;;;;;;2.43;79.22;100783.14;2190503;80;20984;-83
2023/01/06 05:29:20;;;;;;;4.12;2.87;;;;;;;2.46;79.26;100782.47;2191379;80;21015;-81
2023/01/06 05:32:21;;;;;;;4.60;2.60;;;;;;;2.53;79.28;100788.14;2185882;80;20985;-81
2023/01/06 05:35:22;;;;;;;2.95;2.27;;;;;;;2.52;78.91;100767.30;2192317;80;21052;-82
2023/01/06 05:38:23;;;;;;;4.42;2.50;;;;;;;2.43;78.86;100764.80;2198400;79;21020;-79
2023/01/06 05:41:25;;;;;;;4.37;3.20;;;;;;;2.37;78.81;100758.66;2196068;79;21015;-83
2023/01/06 05:44:26;;;;;;;3.72;2.60;;;;;;;2.22;78.84;100748.23;2183957;80;21005;-82
2023/01/06 05:47:27;;;;;;;5.47;2.65;;;;;;;2.13;79.03;100758.42;2191816;80;21081;-80
2023/01/06 05:50:28;;;;;;;4.08;2.52;;;;;;;2.09;79.16;100767.42;2189030;79;21032;-80
2023/01/06 05:53:32;;;;;;;2.75;2.35;;;;;;;2.07;79.55;100760.13;2195873;80;20966;-82
2023/01/06 05:56:34;;;;;;;3.98;2.20;;;;;;;2.01;79.66;100772.66;2190962;80;20977;-83
2023/01/06 05:59:35;;;;;;;3.02;2.52;;;;;;;2.04;79.77;100755.08;2189900;80;21005;-82
2023/01/06 06:02:36;;;;;;;7.30;3.17;;;;;;;2.08;79.86;100770.48;2197629;80;21021;-80
2023/01/06 06:05:37;;;;;;;4.78;3.22;;;;;;;2.13;80.03;100768.89;2189766;79;21277;-82
2023/01/06 06:08:39;;;;;;;4.83;3.65;;;;;;;2.15;79.87;100773.09;2189737;79;20993;-79
2023/01/06 06:11:40;;;;;;;6.03;2.80;;;;;;;2.14;79.73;100764.89;2186917;79;20994;-82
2023/01/06 06:14:41;;;;;;;5.58;2.47;;;;;;;2.11;79.75;100765.08;2192270;80;21465;-81
2023/01/06 06:17:42;;;;;;;3.50;2.70;;;;;;;2.08;79.78;100770.95;2190286;80;20945;-81
2023/01/06 06:20:43;;;;;;;4.28;2.65;;;;;;;2.06;79.83;100760.59;2186729;80;21532;-81
2023/01/06 06:23:44;;;;;;;3.42;2.70;;;;;;;2.05;79.84;100765.44;2190000;80;21017;-83
2023/01/06 06:26:46;;;;;;;4.60;2.60;;;;;;;2.04;79.84;100760.32;2184886;80;21011;-81
2023/01/06 06:29:47;;;;;;;4.97;2.37;;;;;;;1.99;79.78;100770.59;2186724;79;20933;-81
2023/01/06 06:32:48;;;;;;;4.17;2.67;;;;;;;2.01;79.84;100773.96;2196202;80;21005;-82
2023/01/06 06:35:57;;;;;;;4.12;2.60;;;;;;;2.07;79.96;100768.81;2197408;80;21434;-81
2023/01/06 06:39:00;;;;;;;5.50;2.92;;;;;;;2.13;80.02;100776.75;2185793;80;20968;-83
2023/01/06 06:42:02;;;;;;;4.50;2.60;;;;;;;2.18;80.10;100772.91;2192204;79;21033;-81
2023/01/06 06:45:04;;;;;;;4.17;3.12;;;;;;;2.24;80.04;100777.75;2190867;80;21461;-84
2023/01/06 06:48:05;;;;;;;6.97;2.65;;;;;;;2.31;80.14;100782.59;2194333;80;21025;-83
2023/01/06 06:51:11;;;;;;;6.72;2.72;;;;;;;2.35;80.08;100784.09;2186791;80;21056;-81
2023/01/06 06:54:13;;;;;;;5.25;2.85;;;;;;;2.40;80.11;100784.64;2191632;80;21497;-80
2023/01/06 06:57:14;;;;;;;5.28;3.83;;;;;;;2.47;80.19;100778.06;2188368;80;21522;-81
2023/01/06 07:00:16;;;;;;;43.30;19.95;;;;;;;2.49;80.14;100775.36;2195743;80;21081;-82
2023/01/06 07:03:18;;;;;;;9.73;6.05;;;;;;;2.49;80.12;100767.50;2188850;80;21487;-80
2023/01/06 07:06:23;;;;;;;5.67;3.60;;;;;;;2.49;80.08;100764.41;2191546;80;21009;-81
2023/01/06 07:09:24;;;;;;;8.28;4.30;;;;;;;2.41;80.06;100766.67;2190963;80;20977;-80
2023/01/06 07:12:25;;;;;;;6.05;3.80;;;;;;;2.41;80.21;100774.53;2180538;80;21012;-81
2023/01/06 07:15:27;;;;;;;4.33;3.20;;;;;;;2.41;80.21;100783.70;2192913;80;20921;-80
2023/01/06 07:18:28;;;;;;;4.62;2.70;;;;;;;2.39;80.28;100788.19;2197796;80;21059;-82
2023/01/06 07:21:29;;;;;;;4.58;2.55;;;;;;;2.38;80.42;100791.75;2194369;80;21536;-80
2023/01/06 07:24:30;;;;;;;3.60;2.30;;;;;;;2.37;80.43;100791.39;2192681;80;21001;-83
2023/01/06 07:27:32;;;;;;;5.20;2.55;;;;;;;2.34;80.40;100791.12;2194238;80;21295;-83
2023/01/06 07:30:35;;;;;;;4.78;2.52;;;;;;;2.34;80.43;100789.80;2196554;80;20958;-81
2023/01/06 07:33:36;;;;;;;7.22;3.77;;;;;;;2.31;80.45;100782.59;2196308;80;21491;-85
2023/01/06 07:36:37;;;;;;;5.67;2.92;;;;;;;2.24;80.45;100783.46;2192322;80;20992;-81
2023/01/06 07:39:39;;;;;;;6.28;2.83;;;;;;;2.21;80.64;100793.66;2190944;79;21008;-85
2023/01/06 07:42:40;;;;;;;4.40;2.55;;;;;;;2.17;80.97;100791.34;2189350;79;20977;-84
2023/01/06 07:45:42;;;;;;;5.47;3.42;;;;;;;2.13;80.75;100784.12;2183205;80;21013;-83
2023/01/06 07:48:43;;;;;;;6.20;3.58;;;;;;;2.13;80.80;100784.12;2190463;80;20965;-82
2023/01/06 07:51:44;;;;;;;6.97;3.52;;;;;;;2.11;80.83;100778.17;2191586;80;20985;-84
2023/01/06 07:54:46;;;;;;;9.50;3.98;;;;;;;2.10;80.93;100777.78;2186698;79;20992;-83
2023/01/06 07:57:47;;;;;;;10.88;3.70;;;;;;;2.11;81.06;100778.61;2194204;80;21045;-82
2023/01/06 08:00:49;;;;;;;6.05;3.70;;;;;;;2.08;80.94;100768.34;2186412;80;21057;-81
2023/01/06 08:03:50;;;;;;;6.95;3.58;;;;;;;2.04;81.13;100767.70;2187690;80;21011;-82
2023/01/06 08:06:51;;;;;;;8.05;3.70;;;;;;;2.02;81.24;100763.02;2194803;80;21045;-85
2023/01/06 08:09:52;;;;;;;7.87;4.05;;;;;;;2.02;81.23;100763.85;2190003;80;21020;-81
2023/01/06 08:12:54;;;;;;;5.12;3.12;;;;;;;2.05;81.28;100748.90;2195014;80;21503;-82
2023/01/06 08:15:55;;;;;;;6.50;2.90;;;;;;;2.10;81.43;100742.91;2190777;80;21009;-83
2023/01/06 08:18:56;;;;;;;4.92;2.90;;;;;;;2.11;81.42;100746.75;2188293;80;21021;-81
2023/01/06 08:21:57;;;;;;;5.28;3.10;;;;;;;2.13;81.27;100749.26;2194488;80;21015;-80
2023/01/06 08:24:59;;;;;;;7.08;2.90;;;;;;;2.17;81.41;100756.00;2193619;79;21449;-80
2023/01/06 08:28:01;;;;;;;5.58;2.95;;;;;;;2.19;81.45;100747.08;2197480;79;21045;-84
2023/01/06 08:31:02;;;;;;;4.45;2.80;;;;;;;2.20;81.31;100744.86;2191179;79;21024;-83
2023/01/06 08:34:04;;;;;;;3.52;2.70;;;;;;;2.26;81.42;100743.62;2195330;80;21056;-80
2023/01/06 08:37:05;;;;;;;5.92;2.95;;;;;;;2.29;81.30;100749.97;2189240;80;20973;-82
2023/01/06 08:40:07;;;;;;;6.75;3.30;;;;;;;2.31;81.19;100749.86;2187831;80;21028;-81
2023/01/06 08:43:08;;;;;;;5.78;2.98;;;;;;;2.31;81.12;100747.23;2171113;80;22187;-82
2023/01/06 08:46:14;;;;;;;4.50;2.67;;;;;;;2.35;81.19;100743.02;2193081;80;20989;-84
2023/01/06 08:49:15;;;;;;;3.87;2.70;;;;;;;2.39;81.18;100746.28;2193115;80;21191;-81
2023/01/06 08:52:17;;;;;;;7.30;4.12;;;;;;;2.43;81.11;100735.98;2192317;80;21455;-82
2023/01/06 08:55:18;;;;;;;6.00;3.08;;;;;;;2.50;81.14;100732.02;2197414;80;21044;-85
2023/01/06 08:58:19;;;;;;;5.08;3.47;;;;;;;2.52;81.02;100728.83;2209119;80;21437;-84
2023/01/06 09:01:24;;;;;;;6.37;3.85;;;;;;;2.57;81.00;100729.38;2208602;80;20976;-81
2023/01/06 09:04:25;;;;;;;9.70;3.92;;;;;;;2.60;80.91;100721.79;2194754;79;21485;-82
2023/01/06 09:07:26;;;;;;;10.53;4.92;;;;;;;2.61;80.82;100730.84;2192171;79;21056;-83
2023/01/06 09:10:28;;;;;;;7.70;5.62;;;;;;;2.72;81.16;100728.00;2172087;80;20989;-84
2023/01/06 09:13:29;;;;;;;7.28;3.45;;;;;;;2.81;81.04;100728.21;2195443;79;21515;-85
2023/01/06 09:16:30;;;;;;;4.53;3.20;;;;;;;2.89;80.64;100726.41;2203843;80;21016;-82
2023/01/06 09:19:31;;;;;;;6.67;3.45;;;;;;;2.95;80.46;100727.30;2182503;80;21073;-84
2023/01/06 09:22:33;;;;;;;6.87;3.45;;;;;;;3.05;80.53;100725.75;2186548;80;21010;-85
2023/01/06 09:25:34;;;;;;;7.30;3.25;;;;;;;3.12;80.27;100730.92;2181458;80;21072;-82
2023/01/06 09:28:36;;;;;;;6.58;3.58;;;;;;;3.23;80.09;100735.92;2198833;80;21008;-83
2023/01/06 09:31:37;;;;;;;10.10;4.12;;;;;;;3.27;79.75;100724.30;2198499;80;21508;-83
2023/01/06 09:34:38;;;;;;;7.53;3.95;;;;;;;3.32;79.24;100722.17;2209434;79;21016;-83
2023/01/06 09:37:39;;;;;;;7.75;3.62;;;;;;;3.43;79.62;100720.12;2178384;80;21021;-88
2023/01/06 09:41:12;;;;;;;7.65;4.25;;;;;;;3.50;78.74;100707.80;2193877;80;20972;-85
2023/01/06 09:44:25;;;;;;;7.85;4.30;;;;;;;3.57;79.53;100717.38;2199933;80;20993;-84
2023/01/06 09:47:40;;;;;;;4.50;3.33;;;;;;;3.65;79.01;100713.75;2178513;79;20978;-83
2023/01/06 09:50:45;;;;;;;5.20;3.58;;;;;;;3.74;78.83;100714.89;2190804;80;21515;-84
2023/01/06 09:53:52;;;;;;;7.40;3.70;;;;;;;3.81;78.11;100710.90;2204499;78;21048;-83
2023/01/06 09:57:08;;;;;;;7.33;3.67;;;;;;;3.77;77.91;100702.86;2206527;80;21037;-84
2023/01/06 10:00:23;;;;;;;6.35;3.70;;;;;;;3.74;78.07;100699.14;2190454;79;21025;-83
2023/01/06 10:03:26;;;;;;;9.93;3.98;;;;;;;3.72;78.03;100686.62;2187748;80;21595;-82
2023/01/06 10:06:54;;;;;;;6.62;3.87;;;;;;;3.74;78.31;100691.27;2195051;80;21334;-81
2023/01/06 10:10:25;;;;;;;8.35;3.45;;;;;;;3.89;78.28;100703.31;2204721;79;21009;-84
2023/01/06 10:13:55;;;;;;;6.35;3.95;;;;;;;3.93;77.84;100706.08;2200891;79;21017;-85
2023/01/06 10:17:07;;;;;;;8.25;3.87;;;;;;;3.91;78.15;100700.56;2197583;80;21112;-81
2023/01/06 10:20:53;;;;;;;6.00;3.85;;;;;;;3.85;77.43;100693.97;2197221;79;21021;-85
2023/01/06 10:24:06;;;;;;;7.37;3.52;;;;;;;3.85;77.31;100691.34;2196410;79;21024;-84
2023/01/06 10:27:30;;;;;;;7.22;3.42;;;;;;;3.90;77.66;100679.20;2203174;79;21068;-82
2023/01/06 10:30:43;;;;;;;9.40;3.30;;;;;;;3.93;77.90;100661.92;2198491;80;20972;-82
2023/01/06 10:33:53;;;;;;;5.70;3.40;;;;;;;3.89;77.62;100657.37;2199160;79;20989;-83
2023/01/06 10:37:24;;;;;;;4.92;3.22;;;;;;;3.87;77.57;100638.26;2199648;80;21489;-83
2023/01/06 10:40:29;;;;;;;5.50;3.10;;;;;;;3.87;77.15;100625.61;2209396;79;20972;-83
2023/01/06 10:43:30;;;;;;;8.98;3.00;;;;;;;3.77;76.81;100624.11;2190835;80;20969;-83
2023/01/06 10:46:34;;;;;;;8.03;3.62;;;;;;;3.73;77.33;100630.06;2199366;80;20969;-86
2023/01/06 10:49:36;;;;;;;7.60;3.27;;;;;;;3.70;77.21;100624.20;2197837;79;21107;-84
2023/01/06 10:52:38;;;;;;;6.70;2.92;;;;;;;3.75;77.42;100615.53;2185629;80;21021;-83
2023/01/06 10:55:53;;;;;;;5.25;3.47;;;;;;;3.79;77.73;100610.41;2192912;80;21007;-85
2023/01/06 10:59:01;;;;;;;7.55;3.20;;;;;;;3.85;77.69;100617.83;2197754;79;21031;-85
2023/01/06 11:02:03;;;;;;;6.00;3.20;;;;;;;3.86;77.44;100614.73;2184300;80;21031;-84
2023/01/06 11:05:05;;;;;;;6.30;2.90;;;;;;;3.90;77.50;100607.01;2181043;81;21026;-85
2023/01/06 11:08:11;;;;;;;5.47;3.40;;;;;;;3.94;77.34;100602.74;2196439;80;20996;-84
2023/01/06 11:11:16;;;;;;;6.00;3.47;;;;;;;3.98;77.36;100592.37;2207868;80;20949;-84
2023/01/06 11:14:20;;;;;;;6.15;2.90;;;;;;;4.08;77.67;100592.99;2210023;80;21032;-84
2023/01/06 11:17:22;;;;;;;8.08;2.70;;;;;;;4.17;77.90;100586.59;2198848;79;21054;-87
2023/01/06 11:20:28;;;;;;;7.53;3.25;;;;;;;4.20;77.67;100561.89;2201716;79;21027;-84
2023/01/06 11:23:30;;;;;;;5.70;3.17;;;;;;;4.19;77.70;100553.64;2204079;79;21473;-82
2023/01/06 11:26:36;;;;;;;7.37;3.50;;;;;;;4.24;77.79;100531.32;2204654;79;21242;-82
2023/01/06 11:29:37;;;;;;;4.83;3.22;;;;;;;4.36;77.90;100528.23;2199381;80;21047;-84
2023/01/06 11:32:42;;;;;;;6.97;3.53;;;;;;;4.53;77.86;100534.83;2169910;79;22686;-82
2023/01/06 11:35:43;;;;;;;7.35;3.52;;;;;;;4.74;77.67;100519.21;2164961;80;21706;-82
2023/01/06 11:38:59;;;;;;;9.35;3.15;;;;;;;4.89;76.81;100511.42;2197309;80;21004;-83
2023/01/06 11:42:12;;;;;;;9.40;3.77;;;;;;;4.97;76.72;100512.14;2208078;80;21096;-82
2023/01/06 11:45:48;;;;;;;7.25;3.10;;;;;;;4.99;76.76;100512.87;2206730;79;21007;-83
2023/01/06 11:48:57;;;;;;;9.00;4.25;;;;;;;4.96;76.66;100506.54;2202578;80;20981;-86
2023/01/06 11:52:22;;;;;;;7.83;3.75;;;;;;;4.93;76.54;100510.24;2192685;80;21012;-85
2023/01/06 11:55:25;;;;;;;9.60;3.98;;;;;;;4.92;77.16;100500.66;2206265;80;21075;-84
2023/01/06 11:59:06;;;;;;;9.68;4.85;;;;;;;4.93;76.92;100497.58;2206236;80;21519;-83
2023/01/06 12:02:12;;;;;;;8.45;4.03;;;;;;;4.89;77.01;100487.76;2206766;79;21471;-84
2023/01/06 12:05:29;;;;;;;8.13;4.15;;;;;;;4.87;77.07;100481.81;2207782;80;21068;-83
2023/01/06 12:08:37;;;;;;;8.00;3.98;;;;;;;4.85;76.93;100472.36;2185229;79;20965;-82
2023/01/06 12:11:49;;;;;;;10.93;4.20;;;;;;;4.85;77.27;100471.88;2205943;80;20997;-84
2023/01/06 12:14:50;;;;;;;11.93;4.90;;;;;;;4.83;77.33;100464.58;2207144;80;21001;-84
2023/01/06 12:18:03;;;;;;;6.08;3.87;;;;;;;4.85;77.77;100461.36;2204593;80;20972;-86
2023/01/06 12:21:07;;;;;;;7.60;4.35;;;;;;;4.85;77.52;100454.79;2204591;80;21011;-82
2023/01/06 12:24:13;;;;;;;9.58;4.47;;;;;;;4.82;77.75;100432.69;2205286;80;21055;-83
2023/01/06 12:27:20;;;;;;;9.95;4.85;;;;;;;4.83;77.90;100432.20;2195695;79;21075;-81
2023/01/06 12:30:28;;;;;;;11.65;5.42;;;;;;;4.83;78.12;100436.97;2198169;79;21036;-83
2023/01/06 12:33:41;;;;;;;10.60;4.72;;;;;;;4.86;78.15;100438.05;2171246;80;21047;-81
2023/01/06 12:37:17;;;;;;;14.28;5.62;;;;;;;4.85;78.09;100437.70;2196178;80;21738;-82
2023/01/06 12:40:44;;;;;;;10.88;5.28;;;;;;;4.86;78.22;100430.64;2201576;79;20996;-84
2023/01/06 12:44:03;;;;;;;14.10;6.17;;;;;;;4.86;78.24;100424.06;2199515;80;21015;-83
2023/01/06 12:47:41;;;;;;;10.30;5.58;;;;;;;4.89;78.57;100421.19;2215193;79;20979;-83
2023/01/06 12:50:50;;;;;;;16.02;7.78;;;;;;;4.88;78.62;100405.07;2204517;80;21063;-83
2023/01/06 12:53:57;;;;;;;12.35;5.67;;;;;;;4.83;78.81;100409.38;2192801;79;21073;-83
2023/01/06 12:57:16;;;;;;;11.45;5.97;;;;;;;4.80;79.29;100413.56;2186911;80;20996;-85
2023/01/06 13:00:49;;;;;;;11.60;5.78;;;;;;;4.75;79.47;100401.25;2191856;80;21040;-84
2023/01/06 13:04:19;;;;;;;19.10;9.40;;;;;;;4.71;80.04;100406.41;2196842;80;21021;-83
2023/01/06 13:07:49;;;;;;;12.25;7.00;;;;;;;4.70;80.21;100399.47;2201439;79;20974;-84
2023/01/06 13:11:33;;;;;;;10.60;6.42;;;;;;;4.64;81.20;100402.10;2198952;80;21019;-83
2023/01/06 13:15:04;;;;;;;14.28;6.70;;;;;;;4.58;81.69;100397.82;2194915;79;21056;-82
2023/01/06 13:18:30;;;;;;;13.20;7.92;;;;;;;4.54;82.32;100378.84;2192194;80;21005;-83
2023/01/06 13:21:32;;;;;;;21.37;10.80;;;;;;;4.49;81.92;100366.05;2189881;80;21005;-83
2023/01/06 13:25:06;;;;;;;18.10;10.00;;;;;;;4.49;82.46;100359.48;2198417;79;21044;-83
2023/01/06 13:28:34;;;;;;;11.78;7.15;;;;;;;4.47;82.77;100360.08;2196785;80;20992;-84
2023/01/06 13:31:41;;;;;;;15.10;7.53;;;;;;;4.50;82.95;100370.83;2189903;79;21104;-84
2023/01/06 13:35:30;;;;;;;13.75;7.45;;;;;;;4.52;83.19;100369.41;2199209;79;21009;-82
2023/01/06 13:39:09;;;;;;;17.07;9.45;;;;;;;4.53;83.13;100371.06;2143488;79;21501;-83
2023/01/06 13:42:18;;;;;;;14.40;7.90;;;;;;;4.54;83.14;100355.67;2195094;79;21104;-84
2023/01/06 13:45:35;;;;;;;18.98;10.48;;;;;;;4.55;83.70;100348.14;2200052;80;21071;-84
2023/01/06 13:48:45;;;;;;;16.82;8.18;;;;;;;4.57;83.61;100346.23;2196483;80;20997;-83
2023/01/06 13:51:48;;;;;;;14.90;7.92;;;;;;;4.60;83.69;100352.06;2182146;79;21529;-85
2023/01/06 13:54:58;;;;;;;13.18;7.92;;;;;;;4.62;84.21;100355.90;2171748;80;21014;-85
2023/01/06 13:58:25;;;;;;;17.07;8.33;;;;;;;4.63;84.00;100362.81;2198541;79;20977;-86
2023/01/06 14:01:31;;;;;;;17.55;9.03;;;;;;;4.63;84.36;100357.08;2170270;80;21011;-85
2023/01/06 14:04:39;;;;;;;16.10;7.90;;;;;;;4.63;84.24;100364.95;2194984;80;21488;-85
2023/01/06 14:07:48;;;;;;;24.45;12.10;;;;;;;4.64;84.67;100357.91;2194470;80;21033;-83
2023/01/06 14:10:59;;;;;;;20.45;10.63;;;;;;;4.64;84.47;100344.77;2192029;79;21033;-83
2023/01/06 14:14:15;;;;;;;;;;;;;;;;;;;;;
2023/01/06 15:06:20;;;;;;;;;;;;;;;;;;;;;
2023/01/06 15:09:37;;;;;;;22.80;12.37;;;;;;;4.83;86.25;100316.03;1918970;90;21141;-84
2023/01/06 15:21:31;;;;;;;;;;;;;;;;;;;;;
2023/01/06 15:26:42;;;;;;;;;;;;;;;;;;;;;
2023/01/06 15:30:29;;;;;;;22.58;12.68;;;;;;;4.92;86.19;100303.44;1612950;109;21176;-83
2023/01/06 15:34:12;;;;;;;18.77;11.95;;;;;;;4.94;86.28;100305.47;1678255;105;21179;-82
2023/01/06 16:42:38;;;;;;;35.00;16.30;;;;;;;5.27;88.10;100320.75;1875208;92;21404;-84
2023/01/06 16:54:31;;;;;;;;;;;;;;;;;;;;;
2023/01/06 16:58:45;;;;;;;;;;;;;;;;;;;;;
2023/01/06 17:11:23;;;;;;;26.00;16.57;;;;;;;5.60;89.48;100321.05;1703044;103;21178;-83
2023/01/06 17:14:26;;;;;;;27.15;17.15;;;;;;;5.65;89.64;100323.27;1689400;102;21165;-84
2023/01/06 17:17:28;;;;;;;28.07;15.65;;;;;;;5.70;89.79;100322.89;1876074;92;21037;-85
2023/01/06 17:20:30;;;;;;;24.72;15.05;;;;;;;5.72;89.98;100327.06;2039645;86;20992;-84